Time;durP1;ratioP1;P1;durP2;ratioP2;P2;SDS_P1;SDS_P2;PMS_P1;PMS_P2;Temp;Humidity;BMP_temperature;BMP_pressure;BME280_temperature;BME280_humidity;BME280_pressure;Samples;Min_cycle;Max_cycle;Signal;HPM_P1;HPM_P2
2022/03/19 00:01:41;;;;;;;1.83;1.60;;;18.90;34.50;;;;;;5037431;28;20229;-61
2022/03/19 00:04:07;;;;;;;13.27;1.70;;;18.90;34.80;;;;;;5035940;28;20241;-61
2022/03/19 00:06:39;;;;;;;1.57;1.47;;;18.80;35.00;;;;;;5046021;28;20229;-61
2022/03/19 00:09:06;;;;;;;1.77;1.50;;;18.80;35.20;;;;;;5037639;28;20234;-61
2022/03/19 00:11:32;;;;;;;2.17;1.60;;;18.80;35.40;;;;;;5038907;28;20446;-61
2022/03/19 00:13:58;;;;;;;1.60;1.50;;;18.80;35.60;;;;;;5036508;28;20946;-61
2022/03/19 00:16:24;;;;;;;1.60;1.50;;;18.70;35.60;;;;;;5040639;28;20229;-61
2022/03/19 00:18:50;;;;;;;2.17;1.70;;;18.70;35.80;;;;;;5036164;28;20256;-61
2022/03/19 00:21:16;;;;;;;1.57;1.40;;;18.70;35.90;;;;;;5039796;28;21027;-61
2022/03/19 00:23:42;;;;;;;1.60;1.40;;;18.70;36.00;;;;;;5039465;28;20301;-61
2022/03/19 00:26:08;;;;;;;1.47;1.37;;;18.70;36.10;;;;;;5040924;28;20463;-61
2022/03/19 00:28:36;;;;;;;1.40;1.30;;;18.70;36.20;;;;;;5039039;28;20293;-61
2022/03/19 00:31:02;;;;;;;1.63;1.53;;;18.70;36.30;;;;;;5045966;28;20425;-61
2022/03/19 00:33:28;;;;;;;1.60;1.50;;;18.70;37.20;;;;;;5041730;28;20456;-61
2022/03/19 00:35:54;;;;;;;1.43;1.33;;;18.70;36.50;;;;;;5041430;28;20587;-61
2022/03/19 00:38:19;;;;;;;1.40;1.30;;;18.70;36.50;;;;;;5043963;28;20234;-61
2022/03/19 00:40:46;;;;;;;1.23;1.13;;;18.70;36.60;;;;;;5040589;28;20746;-61
2022/03/19 00:43:12;;;;;;;1.50;1.40;;;18.60;36.60;;;;;;5038508;28;20674;-61
2022/03/19 00:45:37;;;;;;;1.70;1.60;;;18.70;36.70;;;;;;5037451;28;20430;-61
2022/03/19 00:48:04;;;;;;;1.40;1.30;;;18.60;36.60;;;;;;5046299;28;20490;-61
2022/03/19 00:50:29;;;;;;;1.40;1.30;;;18.60;36.70;;;;;;5040026;28;20223;-61
2022/03/19 00:52:55;;;;;;;1.60;1.50;;;18.60;36.70;;;;;;5043038;28;20995;-61
2022/03/19 00:55:20;;;;;;;1.57;1.47;;;18.60;36.70;;;;;;5043268;28;20230;-61
2022/03/19 00:57:47;;;;;;;1.30;1.20;;;18.60;36.80;;;;;;5040978;28;20225;-61
2022/03/19 01:00:16;;;;;;;1.50;1.40;;;18.60;36.80;;;;;;5039597;28;20230;-61
2022/03/19 01:02:43;;;;;;;1.40;1.13;;;18.60;36.80;;;;;;5040139;28;20431;-61
2022/03/19 01:05:10;;;;;;;1.60;1.50;;;18.60;36.90;;;;;;5044964;28;20462;-61
2022/03/19 01:07:43;;;;;;;1.60;1.50;;;18.60;36.90;;;;;;5042580;28;20509;-60
2022/03/19 01:10:10;;;;;;;1.40;1.30;;;18.60;36.90;;;;;;5042480;28;20454;-61
2022/03/19 01:12:35;;;;;;;1.70;1.60;;;18.60;36.90;;;;;;5044300;28;20418;-61
2022/03/19 01:15:01;;;;;;;1.93;1.40;;;18.60;37.00;;;;;;5042593;28;20509;-61
2022/03/19 01:17:27;;;;;;;1.50;1.40;;;18.60;37.00;;;;;;5042091;28;20310;-61
2022/03/19 01:19:53;;;;;;;1.63;1.50;;;18.60;37.00;;;;;;5042485;28;20222;-61
2022/03/19 01:22:19;;;;;;;1.30;1.20;;;18.60;37.10;;;;;;5040290;28;20449;-61
2022/03/19 01:24:45;;;;;;;1.20;1.10;;;18.60;37.10;;;;;;5039905;28;20243;-61
2022/03/19 01:27:11;;;;;;;1.30;1.20;;;18.60;37.10;;;;;;5033750;28;20460;-61
2022/03/19 01:29:36;;;;;;;1.50;1.40;;;18.60;37.10;;;;;;5044437;28;20434;-61
2022/03/19 01:32:03;;;;;;;1.43;1.33;;;18.60;37.10;;;;;;5044111;28;20226;-61
2022/03/19 01:34:29;;;;;;;1.30;1.20;;;18.60;37.10;;;;;;5039852;28;20703;-61
2022/03/19 01:36:54;;;;;;;1.50;1.40;;;18.50;37.10;;;;;;5039086;28;20416;-61
2022/03/19 01:39:20;;;;;;;1.70;1.40;;;18.60;37.20;;;;;;5041682;28;20227;-61
2022/03/19 01:41:45;;;;;;;1.43;1.33;;;18.60;37.20;;;;;;5042980;28;20227;-61
2022/03/19 01:44:22;;;;;;;1.30;1.20;;;18.50;37.20;;;;;;5041483;28;20235;-61
2022/03/19 01:47:08;;;;;;;1.97;1.60;;;18.60;37.20;;;;;;5037658;28;20289;-61
2022/03/19 01:49:33;;;;;;;1.30;1.20;;;18.50;38.00;;;;;;5043429;28;20505;-61
2022/03/19 01:51:59;;;;;;;1.40;1.30;;;18.50;37.20;;;;;;5041037;28;20869;-61
2022/03/19 01:54:31;;;;;;;1.27;1.17;;;18.60;37.20;;;;;;5040816;28;20300;-61
2022/03/19 01:56:58;;;;;;;1.60;1.50;;;18.50;37.20;;;;;;5041896;28;20245;-61
2022/03/19 01:59:27;;;;;;;1.30;1.20;;;18.50;37.20;;;;;;5040897;28;20446;-61
2022/03/19 02:01:53;;;;;;;1.40;1.30;;;18.50;37.30;;;;;;5040761;28;20483;-61
2022/03/19 02:04:19;;;;;;;1.53;1.43;;;18.50;37.50;;;;;;5038382;28;20489;-61
2022/03/19 02:06:45;;;;;;;1.57;1.47;;;18.50;37.30;;;;;;5036289;28;20427;-61
2022/03/19 02:09:11;;;;;;;2.20;1.60;;;18.50;37.30;;;;;;5041285;28;20783;-61
2022/03/19 02:11:37;;;;;;;1.50;1.40;;;18.50;37.20;;;;;;5038809;28;20419;-61
2022/03/19 02:14:03;;;;;;;1.30;1.20;;;18.50;37.30;;;;;;5040943;28;20234;-61
2022/03/19 02:16:29;;;;;;;1.47;1.37;;;18.50;37.30;;;;;;5037890;28;20244;-61
2022/03/19 02:18:59;;;;;;;1.53;1.30;;;18.50;37.30;;;;;;5037159;28;20430;-61
2022/03/19 02:21:25;;;;;;;1.57;1.47;;;18.50;37.30;;;;;;5043380;28;20512;-60
2022/03/19 02:26:46;;;;;;;1.60;1.50;;;18.50;37.30;;;;;;5039695;28;20234;-61
2022/03/19 02:29:12;;;;;;;1.50;1.40;;;18.50;37.40;;;;;;5037330;28;20806;-61
2022/03/19 02:31:40;;;;;;;1.60;1.50;;;18.50;37.40;;;;;;5039345;28;20430;-61
2022/03/19 02:34:09;;;;;;;2.03;1.53;;;18.50;37.40;;;;;;5035665;28;20317;-61
2022/03/19 02:36:36;;;;;;;1.93;1.30;;;18.50;37.40;;;;;;5036306;28;21265;-61
2022/03/19 02:39:16;;;;;;;1.30;1.20;;;18.50;37.40;;;;;;5038658;28;20501;-61
2022/03/19 02:41:46;;;;;;;1.33;1.23;;;18.50;37.30;;;;;;5039701;28;20457;-61
2022/03/19 02:44:13;;;;;;;1.40;1.30;;;18.50;37.40;;;;;;5040043;28;20456;-61
2022/03/19 02:46:41;;;;;;;1.40;1.30;;;18.50;37.40;;;;;;5040564;28;20423;-61
2022/03/19 02:49:07;;;;;;;1.57;1.47;;;18.50;37.40;;;;;;5039123;28;20426;-60
2022/03/19 02:51:34;;;;;;;1.90;1.40;;;18.50;37.40;;;;;;5037344;28;20479;-61
2022/03/19 02:54:02;;;;;;;1.60;1.50;;;18.50;37.40;;;;;;5038777;28;21008;-61
2022/03/19 02:56:27;;;;;;;1.40;1.30;;;18.50;37.40;;;;;;5037225;28;20481;-61
2022/03/19 02:58:53;;;;;;;1.50;1.40;;;18.50;37.50;;;;;;5038900;28;20440;-61
2022/03/19 03:01:18;;;;;;;1.57;1.47;;;18.50;37.50;;;;;;5034365;28;20223;-61
2022/03/19 03:03:44;;;;;;;1.30;1.20;;;18.50;37.50;;;;;;5036990;28;20235;-63
2022/03/19 03:06:09;;;;;;;1.30;1.20;;;18.50;37.50;;;;;;5041600;28;20258;-62
2022/03/19 03:08:35;;;;;;;2.03;1.40;;;18.50;37.40;;;;;;5035998;28;20613;-62
2022/03/19 03:11:01;;;;;;;1.43;1.33;;;18.50;38.30;;;;;;5036464;28;20222;-62
2022/03/19 03:13:26;;;;;;;1.43;1.33;;;18.50;37.50;;;;;;5037294;28;20230;-62
2022/03/19 03:15:52;;;;;;;1.60;1.50;;;18.50;37.50;;;;;;5037431;28;20226;-62
2022/03/19 03:18:18;;;;;;;1.53;1.40;;;18.50;37.50;;;;;;5035012;28;20215;-61
2022/03/19 03:20:44;;;;;;;1.20;1.10;;;18.50;37.50;;;;;;5038494;28;20228;-61
2022/03/19 03:23:10;;;;;;;1.50;1.40;;;18.50;37.50;;;;;;5038145;28;20516;-61
2022/03/19 03:25:35;;;;;;;1.47;1.37;;;18.50;37.40;;;;;;5038900;28;20670;-61
2022/03/19 03:28:01;;;;;;;1.50;1.40;;;18.50;37.40;;;;;;5033738;28;20593;-61
2022/03/19 03:30:27;;;;;;;1.50;1.37;;;18.50;37.50;;;;;;5034687;28;20223;-61
2022/03/19 03:32:52;;;;;;;1.50;1.40;;;18.50;37.40;;;;;;5037448;28;20225;-61
2022/03/19 03:35:25;;;;;;;1.50;1.17;;;18.50;37.40;;;;;;5037197;28;20719;-61
2022/03/19 03:37:51;;;;;;;1.60;1.40;;;18.50;37.40;;;;;;5034507;28;20219;-61
2022/03/19 03:40:18;;;;;;;1.30;1.20;;;18.50;37.40;;;;;;5039347;28;20438;-61
2022/03/19 03:42:44;;;;;;;1.50;1.40;;;18.50;37.40;;;;;;5041662;28;20500;-61
2022/03/19 03:45:10;;;;;;;2.10;1.47;;;18.50;38.20;;;;;;5037637;28;20521;-61
2022/03/19 03:47:36;;;;;;;1.30;1.20;;;18.50;37.50;;;;;;5035933;28;20455;-61
2022/03/19 03:50:02;;;;;;;1.90;1.50;;;18.50;37.50;;;;;;5040084;28;20440;-61
2022/03/19 03:52:30;;;;;;;1.77;1.30;;;18.50;37.40;;;;;;5040771;28;20727;-61
2022/03/19 03:54:58;;;;;;;1.50;1.40;;;18.50;37.40;;;;;;5038593;28;20527;-61
2022/03/19 03:57:24;;;;;;;1.57;1.47;;;18.50;37.50;;;;;;5037450;28;20448;-61
2022/03/19 03:59:50;;;;;;;1.50;1.40;;;18.50;37.50;;;;;;5040098;28;20445;-61
2022/03/19 04:02:16;;;;;;;1.47;1.37;;;18.50;37.50;;;;;;5040348;28;20269;-61
2022/03/19 04:04:42;;;;;;;1.30;1.20;;;18.50;37.50;;;;;;5037552;28;20971;-61
2022/03/19 04:07:08;;;;;;;1.60;1.50;;;18.50;37.60;;;;;;5036168;28;20423;-60
2022/03/19 04:09:33;;;;;;;1.57;1.40;;;18.40;37.50;;;;;;5036460;28;20226;-61
2022/03/19 04:12:00;;;;;;;1.33;1.20;;;18.50;37.50;;;;;;5037096;28;20301;-61
2022/03/19 04:14:25;;;;;;;1.30;1.20;;;18.50;37.60;;;;;;5040289;28;20261;-61
2022/03/19 04:16:51;;;;;;;1.53;1.43;;;18.50;37.60;;;;;;5038405;28;20465;-61
2022/03/19 04:19:17;;;;;;;1.50;1.40;;;18.40;37.50;;;;;;5040665;28;20218;-61
2022/03/19 04:21:42;;;;;;;1.40;1.30;;;18.40;37.50;;;;;;5039444;28;20218;-61
2022/03/19 04:24:08;;;;;;;1.50;1.40;;;18.40;37.50;;;;;;5042174;28;21090;-61
2022/03/19 04:26:34;;;;;;;1.57;1.47;;;18.50;38.30;;;;;;5038154;28;20285;-60
2022/03/19 04:28:59;;;;;;;1.37;1.27;;;18.50;37.50;;;;;;5035679;28;20239;-61
2022/03/19 04:31:25;;;;;;;2.17;1.43;;;18.40;37.50;;;;;;5040006;28;20561;-61
2022/03/19 04:33:50;;;;;;;1.90;1.80;;;18.40;37.40;;;;;;5035359;28;20267;-61
2022/03/19 04:36:33;;;;;;;1.30;1.20;;;18.50;37.60;;;;;;5033588;28;20288;-61
2022/03/19 04:39:04;;;;;;;1.40;1.30;;;18.40;37.50;;;;;;5036128;28;20218;-60
2022/03/19 04:41:30;;;;;;;1.53;1.27;;;18.40;37.50;;;;;;5037246;28;20450;-61
2022/03/19 04:43:56;;;;;;;1.60;1.50;;;18.50;37.50;;;;;;5037738;28;20456;-61
2022/03/19 04:46:21;;;;;;;1.40;1.30;;;18.40;37.50;;;;;;5037717;28;20591;-60
2022/03/19 04:48:47;;;;;;;1.50;1.40;;;18.40;37.50;;;;;;5040589;28;20227;-61
2022/03/19 04:51:14;;;;;;;1.40;1.30;;;18.40;37.50;;;;;;5036827;28;20265;-61
2022/03/19 04:53:41;;;;;;;3.63;1.50;;;18.40;37.50;;;;;;5034775;28;20219;-61
2022/03/19 04:56:06;;;;;;;1.30;1.20;;;18.40;37.60;;;;;;5031264;28;20568;-61
2022/03/19 04:58:33;;;;;;;1.40;1.30;;;18.40;37.50;;;;;;5040276;28;20535;-61
2022/03/19 05:00:59;;;;;;;1.40;1.30;;;18.40;37.50;;;;;;5040113;28;20243;-61
2022/03/19 05:03:25;;;;;;;1.70;1.60;;;18.40;37.50;;;;;;5038489;28;20467;-61
2022/03/19 05:05:51;;;;;;;1.47;1.37;;;18.40;37.60;;;;;;5036569;28;20226;-61
2022/03/19 05:08:17;;;;;;;1.37;1.27;;;18.40;37.60;;;;;;5038264;28;20975;-60
2022/03/19 05:13:27;;;;;;;1.70;1.60;;;18.40;37.60;;;;;;5042951;28;20497;-61
2022/03/19 05:15:53;;;;;;;1.23;1.13;;;18.40;37.50;;;;;;5039127;28;20423;-61
2022/03/19 05:18:19;;;;;;;1.50;1.40;;;18.40;37.50;;;;;;5038873;28;20225;-61
2022/03/19 05:20:45;;;;;;;1.87;1.50;;;18.40;37.50;;;;;;5038116;28;20244;-61
2022/03/19 05:23:11;;;;;;;1.87;1.60;;;18.40;37.30;;;;;;5038552;28;20422;-61
2022/03/19 05:25:37;;;;;;;1.73;1.30;;;18.40;37.30;;;;;;5038951;28;20630;-61
2022/03/19 05:28:03;;;;;;;1.50;1.40;;;18.50;37.40;;;;;;5040186;28;20214;-61
2022/03/19 05:30:30;;;;;;;1.60;1.50;;;18.50;37.40;;;;;;5039396;28;20225;-61
2022/03/19 05:32:56;;;;;;;1.87;1.77;;;18.50;37.50;;;;;;5043195;28;20449;-61
2022/03/19 05:35:22;;;;;;;1.27;1.17;;;18.50;37.30;;;;;;5041946;28;20451;-61
2022/03/19 05:37:47;;;;;;;1.40;1.30;;;18.50;37.40;;;;;;5042029;28;20559;-61
2022/03/19 05:40:13;;;;;;;1.37;1.27;;;18.50;37.30;;;;;;5037503;28;20239;-61
2022/03/19 05:42:39;;;;;;;1.80;1.70;;;18.50;37.30;;;;;;5036880;28;20215;-61
2022/03/19 05:45:05;;;;;;;1.93;1.20;;;18.50;37.30;;;;;;5040430;28;20773;-61
2022/03/19 05:47:31;;;;;;;2.73;1.40;;;18.50;37.20;;;;;;5039932;28;20233;-61
2022/03/19 05:49:56;;;;;;;1.60;1.50;;;18.50;37.20;;;;;;5035520;28;20444;-61
2022/03/19 05:52:22;;;;;;;1.43;1.33;;;18.50;38.00;;;;;;5040507;28;20646;-61
2022/03/19 05:54:48;;;;;;;1.40;1.30;;;18.50;37.20;;;;;;5039480;28;20625;-61
2022/03/19 05:57:14;;;;;;;1.40;1.30;;;18.50;37.10;;;;;;5041142;28;20218;-61
2022/03/19 05:59:40;;;;;;;1.50;1.40;;;18.50;37.20;;;;;;5040136;28;20923;-61
2022/03/19 06:02:06;;;;;;;1.57;1.47;;;18.60;37.20;;;;;;5040034;28;20261;-61
2022/03/19 06:04:34;;;;;;;1.53;1.43;;;18.50;37.10;;;;;;5040006;28;20638;-61
2022/03/19 06:06:59;;;;;;;1.87;1.50;;;18.50;37.10;;;;;;5039500;28;20273;-61
2022/03/19 06:09:25;;;;;;;1.40;1.30;;;18.60;37.10;;;;;;5039952;28;20416;-61
2022/03/19 06:11:50;;;;;;;1.30;1.20;;;18.60;37.10;;;;;;5042261;28;20233;-61
2022/03/19 06:14:16;;;;;;;1.40;1.30;;;18.60;37.10;;;;;;5042508;28;20223;-61
2022/03/19 06:16:41;;;;;;;1.50;1.40;;;18.60;37.10;;;;;;5038074;28;20211;-61
2022/03/19 06:19:07;;;;;;;1.40;1.30;;;18.60;37.10;;;;;;5039757;28;20253;-61
2022/03/19 06:21:32;;;;;;;1.53;1.43;;;18.60;37.00;;;;;;5038083;28;20699;-61
2022/03/19 06:23:58;;;;;;;1.57;1.47;;;18.60;37.00;;;;;;5035417;28;20775;-61
2022/03/19 06:26:23;;;;;;;1.80;1.70;;;18.60;37.00;;;;;;5036113;28;20302;-61
2022/03/19 06:28:50;;;;;;;1.40;1.30;;;18.60;37.00;;;;;;5038407;28;20234;-61
2022/03/19 06:31:16;;;;;;;1.40;1.30;;;18.60;36.90;;;;;;5035601;28;20221;-61
2022/03/19 06:33:42;;;;;;;1.47;1.37;;;18.60;36.90;;;;;;5035968;28;20448;-61
2022/03/19 06:38:53;;;;;;;1.70;1.60;;;18.60;36.90;;;;;;5042479;28;20421;-61
2022/03/19 06:41:21;;;;;;;1.50;1.40;;;18.60;36.90;;;;;;5037227;28;20460;-61
2022/03/19 06:43:47;;;;;;;2.43;2.07;;;18.60;36.90;;;;;;5036823;28;20288;-61
2022/03/19 06:46:13;;;;;;;1.40;1.30;;;18.60;36.90;;;;;;5037930;28;20932;-61
2022/03/19 06:48:39;;;;;;;1.43;1.33;;;18.60;36.90;;;;;;5035390;28;20449;-62
2022/03/19 06:51:04;;;;;;;1.50;1.40;;;18.60;36.90;;;;;;5039951;28;20605;-62
2022/03/19 06:53:30;;;;;;;1.77;1.67;;;18.60;36.90;;;;;;5037917;28;20225;-61
2022/03/19 06:55:55;;;;;;;1.40;1.30;;;18.60;36.80;;;;;;5036483;28;20225;-61
2022/03/19 06:58:21;;;;;;;1.57;1.47;;;18.60;36.80;;;;;;5040383;28;20219;-61
2022/03/19 07:00:47;;;;;;;1.50;1.40;;;18.60;36.80;;;;;;5040023;28;20654;-61
2022/03/19 07:03:13;;;;;;;1.53;1.43;;;18.60;36.80;;;;;;5040166;28;20231;-62
2022/03/19 07:05:38;;;;;;;4.70;1.60;;;18.60;36.80;;;;;;5036651;28;20590;-62
2022/03/19 07:08:08;;;;;;;2.10;1.50;;;18.60;36.80;;;;;;5037751;28;20258;-61
2022/03/19 07:10:36;;;;;;;1.53;1.43;;;18.60;36.80;;;;;;5044779;28;20302;-61
2022/03/19 07:13:02;;;;;;;3.83;1.30;;;18.60;36.80;;;;;;5039168;28;20493;-61
2022/03/19 07:15:29;;;;;;;2.60;1.40;;;18.60;36.80;;;;;;5041071;28;20545;-61
2022/03/19 07:17:56;;;;;;;1.37;1.27;;;18.60;36.80;;;;;;5040911;28;20419;-59
2022/03/19 07:20:22;;;;;;;1.43;1.33;;;18.60;36.80;;;;;;5039757;28;20444;-62
2022/03/19 07:23:07;;;;;;;1.50;1.40;;;18.60;36.80;;;;;;5035814;28;20423;-62
2022/03/19 07:25:38;;;;;;;1.50;1.40;;;18.70;36.90;;;;;;5036936;28;20472;-61
2022/03/19 07:28:06;;;;;;;1.50;1.40;;;18.60;36.80;;;;;;5038346;28;20426;-61
2022/03/19 07:30:33;;;;;;;2.13;1.50;;;18.60;36.70;;;;;;5043020;28;20410;-61
2022/03/19 07:32:59;;;;;;;1.63;1.53;;;18.60;36.70;;;;;;5039562;28;20467;-61
2022/03/19 07:35:25;;;;;;;1.50;1.40;;;18.60;36.70;;;;;;5036959;28;20456;-61
2022/03/19 07:37:51;;;;;;;1.40;1.30;;;18.60;36.80;;;;;;5041117;28;20486;-61
2022/03/19 07:43:05;;;;;;;1.40;1.30;;;18.60;36.80;;;;;;5040483;28;20244;-61
2022/03/19 07:45:31;;;;;;;2.03;1.30;;;18.60;36.70;;;;;;5035485;28;20471;-61
2022/03/19 07:47:57;;;;;;;1.73;1.40;;;18.60;36.80;;;;;;5043263;28;20483;-61
2022/03/19 07:50:23;;;;;;;1.57;1.40;;;18.60;36.80;;;;;;5038489;28;20293;-61
2022/03/19 07:52:48;;;;;;;2.53;1.40;;;18.60;36.80;;;;;;5039194;28;20524;-60
2022/03/19 07:55:14;;;;;;;1.40;1.30;;;18.60;36.80;;;;;;5038890;28;20264;-60
2022/03/19 07:57:39;;;;;;;2.97;1.60;;;18.70;36.90;;;;;;5038547;28;20763;-61
2022/03/19 08:00:05;;;;;;;3.93;1.50;;;18.60;36.70;;;;;;5039614;28;20195;-63
2022/03/19 08:02:31;;;;;;;1.80;1.70;;;18.70;36.80;;;;;;5040553;28;20223;-62
2022/03/19 08:05:00;;;;;;;1.50;1.40;;;18.70;36.80;;;;;;5038273;28;20959;-62
2022/03/19 08:07:25;;;;;;;1.60;1.37;;;18.70;36.80;;;;;;5037400;28;20241;-62
2022/03/19 08:09:51;;;;;;;1.40;1.30;;;18.70;36.80;;;;;;5039898;28;20979;-62
2022/03/19 08:12:16;;;;;;;1.70;1.60;;;18.70;36.90;;;;;;5038952;28;20219;-62
2022/03/19 08:14:42;;;;;;;1.60;1.50;;;18.70;36.80;;;;;;5039180;28;20222;-61
2022/03/19 08:17:08;;;;;;;2.70;1.37;;;18.70;36.80;;;;;;5036120;28;20234;-68
2022/03/19 08:19:33;;;;;;;3.10;1.30;;;18.70;36.80;;;;;;5037717;28;20218;-65
2022/03/19 08:21:59;;;;;;;1.37;1.27;;;18.70;36.80;;;;;;5037362;28;20280;-66
2022/03/19 08:24:25;;;;;;;1.40;1.30;;;18.70;36.80;;;;;;5033553;28;20245;-64
2022/03/19 08:26:53;;;;;;;1.30;1.20;;;18.70;36.80;;;;;;5036522;28;20468;-63
2022/03/19 08:29:23;;;;;;;1.63;1.40;;;18.70;36.80;;;;;;5037204;28;20245;-61
2022/03/19 08:31:50;;;;;;;1.27;1.17;;;18.70;36.80;;;;;;5040824;28;20419;-62
2022/03/19 08:34:15;;;;;;;2.10;1.90;;;18.70;36.80;;;;;;5039634;28;21001;-63
2022/03/19 08:36:41;;;;;;;1.20;1.10;;;18.70;36.80;;;;;;5036724;28;20541;-60
2022/03/19 08:41:51;;;;;;;1.30;1.20;;;18.70;36.80;;;;;;5034766;28;20335;-65
2022/03/19 08:44:16;;;;;;;1.30;1.20;;;18.70;36.80;;;;;;5039068;28;20509;-62
2022/03/19 08:46:42;;;;;;;3.43;1.30;;;18.70;36.80;;;;;;5041347;28;20570;-63
2022/03/19 08:49:07;;;;;;;3.33;1.57;;;18.70;36.80;;;;;;5042582;28;21131;-62
2022/03/19 08:51:39;;;;;;;1.40;1.30;;;18.70;36.80;;;;;;5043275;28;20222;-62
2022/03/19 08:54:05;;;;;;;3.37;1.77;;;18.70;36.90;;;;;;5039197;28;20214;-62
2022/03/19 08:56:32;;;;;;;1.30;1.20;;;18.80;37.00;;;;;;5043592;28;20464;-61
2022/03/19 08:58:59;;;;;;;1.90;1.77;;;18.70;36.80;;;;;;5041655;28;20469;-64
2022/03/19 09:01:26;;;;;;;5.53;3.83;;;18.70;36.80;;;;;;5039753;28;20530;-62
2022/03/19 09:03:52;;;;;;;1.60;1.50;;;18.70;36.90;;;;;;5043345;28;20916;-62
2022/03/19 09:06:18;;;;;;;1.30;1.20;;;18.70;36.90;;;;;;5045094;28;20219;-62
2022/03/19 09:08:45;;;;;;;2.60;1.30;;;18.70;36.90;;;;;;5038733;28;20450;-63
2022/03/19 09:11:11;;;;;;;4.93;1.93;;;18.70;36.90;;;;;;5042173;28;20447;-63
2022/03/19 09:13:37;;;;;;;1.70;1.50;;;18.70;36.80;;;;;;5040930;28;20439;-63
2022/03/19 09:16:04;;;;;;;1.73;1.63;;;18.70;36.80;;;;;;5040114;28;20459;-62
2022/03/19 09:18:30;;;;;;;1.70;1.60;;;18.80;36.80;;;;;;5041238;28;20341;-62
2022/03/19 09:20:57;;;;;;;2.47;1.30;;;18.80;36.80;;;;;;5041266;28;20971;-63
2022/03/19 09:23:22;;;;;;;1.17;1.07;;;18.80;36.80;;;;;;5044395;28;20671;-62
2022/03/19 09:25:48;;;;;;;1.53;1.20;;;18.80;36.70;;;;;;5041486;28;20431;-63
2022/03/19 09:28:13;;;;;;;1.67;1.30;;;18.80;36.70;;;;;;5043063;28;20217;-63
2022/03/19 09:30:39;;;;;;;1.47;1.37;;;18.80;36.70;;;;;;5041675;28;20229;-63
2022/03/19 09:33:05;;;;;;;1.50;1.40;;;18.80;36.70;;;;;;5038846;28;20221;-62
2022/03/19 09:35:30;;;;;;;2.40;1.40;;;18.80;36.70;;;;;;5039566;28;20656;-62
2022/03/19 09:37:56;;;;;;;1.30;1.20;;;18.80;36.60;;;;;;5042280;28;20226;-62
2022/03/19 09:40:22;;;;;;;1.47;1.30;;;18.80;36.70;;;;;;5045304;28;20310;-62
2022/03/19 09:42:49;;;;;;;3.03;1.83;;;18.80;36.60;;;;;;5044107;28;20319;-62
2022/03/19 09:45:18;;;;;;;1.40;1.30;;;18.90;36.70;;;;;;5041125;28;20444;-62
2022/03/19 09:47:44;;;;;;;1.57;1.37;;;18.80;36.60;;;;;;5037902;28;21022;-62
2022/03/19 09:50:10;;;;;;;2.50;1.30;;;18.80;36.70;;;;;;5039405;28;20541;-62
2022/03/19 09:52:36;;;;;;;1.30;1.20;;;18.90;36.80;;;;;;5042187;28;20290;-62
2022/03/19 09:55:03;;;;;;;1.20;1.10;;;18.80;36.70;;;;;;5039964;28;20293;-62
2022/03/19 09:57:28;;;;;;;1.40;1.30;;;18.80;36.70;;;;;;5039155;28;20516;-62
2022/03/19 09:59:54;;;;;;;1.30;1.20;;;18.80;36.60;;;;;;5034404;28;21008;-62
2022/03/19 10:02:20;;;;;;;2.03;1.43;;;18.80;36.70;;;;;;5040887;28;20215;-62
2022/03/19 10:04:45;;;;;;;1.30;1.20;;;18.80;36.70;;;;;;5041103;28;20265;-62
2022/03/19 10:09:56;;;;;;;2.03;1.93;;;18.80;36.70;;;;;;5039428;28;20268;-62
2022/03/19 10:12:25;;;;;;;2.57;1.23;;;18.90;37.50;;;;;;5038366;28;20467;-61
2022/03/19 10:14:53;;;;;;;2.30;1.50;;;18.90;36.70;;;;;;5040282;28;20470;-62
2022/03/19 10:17:33;;;;;;;1.30;1.20;;;18.90;36.60;;;;;;5041333;28;20490;-66
2022/03/19 10:20:10;;;;;;;1.20;1.10;;;18.90;36.50;;;;;;5038641;28;20448;-66
2022/03/19 10:22:41;;;;;;;1.40;1.30;;;18.90;36.60;;;;;;5037712;28;20511;-64
2022/03/19 10:25:08;;;;;;;1.70;1.40;;;18.90;36.60;;;;;;5037756;28;20951;-64
2022/03/19 10:27:35;;;;;;;1.60;1.50;;;18.90;36.50;;;;;;5039638;28;20471;-65
2022/03/19 10:30:08;;;;;;;1.30;1.20;;;18.90;36.60;;;;;;5042561;28;20521;-64
2022/03/19 10:32:34;;;;;;;1.37;1.27;;;18.90;36.60;;;;;;5037177;28;20487;-64
2022/03/19 10:35:01;;;;;;;1.20;1.10;;;19.00;36.60;;;;;;5039752;28;20454;-64
2022/03/19 10:37:38;;;;;;;1.47;1.37;;;18.90;36.60;;;;;;5043434;28;20414;-64
2022/03/19 10:40:08;;;;;;;1.30;1.20;;;18.90;36.60;;;;;;5040781;28;20472;-61
2022/03/19 10:42:39;;;;;;;2.90;1.27;;;18.90;36.70;;;;;;5044358;28;20824;-60
2022/03/19 10:45:09;;;;;;;1.50;1.20;;;18.90;36.70;;;;;;5037788;28;20430;-63
2022/03/19 10:47:42;;;;;;;1.30;1.20;;;18.90;36.70;;;;;;5039829;28;21152;-62
2022/03/19 10:50:09;;;;;;;2.77;1.30;;;18.90;36.70;;;;;;5036854;28;20462;-61
2022/03/19 10:52:36;;;;;;;1.20;1.10;;;18.90;36.80;;;;;;5039190;28;20443;-62
2022/03/19 10:55:07;;;;;;;1.50;1.40;;;18.90;36.80;;;;;;5040928;28;21021;-61
2022/03/19 10:57:33;;;;;;;1.43;1.20;;;18.90;36.90;;;;;;5036673;28;20477;-61
2022/03/19 10:59:59;;;;;;;1.30;1.20;;;18.90;36.90;;;;;;5038958;28;20440;-63
2022/03/19 11:02:28;;;;;;;1.40;1.30;;;18.90;36.90;;;;;;5039377;28;20439;-63
2022/03/19 11:04:55;;;;;;;1.50;1.40;;;18.90;36.90;;;;;;5042447;28;20246;-62
2022/03/19 11:07:23;;;;;;;1.30;1.20;;;18.90;37.00;;;;;;5038009;28;20435;-62
2022/03/19 11:09:54;;;;;;;1.40;1.30;;;18.90;36.90;;;;;;5038433;28;20458;-61
2022/03/19 11:12:25;;;;;;;1.23;1.10;;;18.90;37.00;;;;;;5037354;28;20447;-60
2022/03/19 11:14:53;;;;;;;1.40;1.30;;;18.90;37.00;;;;;;5037712;28;20462;-60
2022/03/19 11:17:32;;;;;;;1.40;1.30;;;18.90;37.00;;;;;;5039570;28;20455;-60
2022/03/19 11:20:00;;;;;;;1.20;1.10;;;18.80;37.00;;;;;;5041869;28;20467;-60
2022/03/19 11:22:29;;;;;;;1.53;1.30;;;18.80;36.90;;;;;;5034141;28;20488;-60
2022/03/19 11:25:02;;;;;;;1.47;1.37;;;18.80;37.00;;;;;;5036463;28;20493;-60
2022/03/19 11:27:32;;;;;;;1.20;1.10;;;18.80;36.90;;;;;;5045409;28;20448;-60
2022/03/19 11:29:59;;;;;;;1.17;1.10;;;18.80;36.90;;;;;;5040583;28;20520;-60
2022/03/19 11:32:25;;;;;;;1.87;1.77;;;18.80;36.90;;;;;;5038753;28;20924;-60
2022/03/19 11:34:57;;;;;;;1.70;1.60;;;18.80;36.90;;;;;;5036667;28;20450;-60
2022/03/19 11:37:24;;;;;;;1.73;1.20;;;18.80;36.90;;;;;;5037117;28;20218;-60
2022/03/19 11:40:32;;;;;;;1.70;1.47;;;18.80;36.90;;;;;;5038060;28;20469;-60
2022/03/19 11:43:01;;;;;;;1.40;1.20;;;18.80;36.90;;;;;;5041907;28;20785;-60
2022/03/19 11:45:27;;;;;;;1.40;1.30;;;18.80;36.90;;;;;;5036913;28;20445;-60
2022/03/19 11:47:53;;;;;;;1.60;1.33;;;18.80;36.90;;;;;;5036860;28;20488;-60
2022/03/19 11:50:23;;;;;;;1.37;1.27;;;18.80;36.90;;;;;;5039647;28;20913;-62
2022/03/19 11:52:49;;;;;;;3.73;1.10;;;18.80;36.80;;;;;;5042449;28;20230;-62
2022/03/19 11:55:19;;;;;;;2.13;1.30;;;18.70;36.80;;;;;;5041366;28;20934;-62
2022/03/19 11:57:55;;;;;;;3.10;1.20;;;18.70;36.80;;;;;;5039983;28;20702;-61
2022/03/19 12:00:26;;;;;;;1.30;1.20;;;18.70;36.80;;;;;;5040989;28;20480;-60
2022/03/19 12:03:16;;;;;;;1.10;1.00;;;18.70;36.80;;;;;;5037285;28;20454;-60
2022/03/19 12:05:49;;;;;;;1.73;1.17;;;18.70;36.80;;;;;;5036573;28;20438;-60
2022/03/19 12:08:19;;;;;;;6.70;2.00;;;18.70;36.70;;;;;;5041248;28;20452;-60
2022/03/19 12:10:58;;;;;;;5.73;1.80;;;18.70;36.70;;;;;;5033776;28;20418;-60
2022/03/19 12:13:26;;;;;;;1.33;1.23;;;18.70;36.70;;;;;;5036202;28;20423;-60
2022/03/19 12:15:55;;;;;;;20.30;2.30;;;18.70;36.70;;;;;;5041151;28;20450;-60
2022/03/19 12:18:29;;;;;;;1.30;1.20;;;18.80;36.70;;;;;;5040187;28;20429;-59
2022/03/19 12:21:10;;;;;;;2.17;1.37;;;18.70;36.80;;;;;;5042327;28;20452;-60
2022/03/19 12:23:42;;;;;;;4.63;1.30;;;18.70;36.70;;;;;;5038371;28;20479;-60
2022/03/19 12:26:08;;;;;;;1.90;1.30;;;18.70;36.70;;;;;;5041402;28;20518;-60
2022/03/19 12:28:35;;;;;;;1.43;1.33;;;18.70;37.50;;;;;;5034731;28;20456;-60
2022/03/19 12:31:11;;;;;;;1.50;1.40;;;18.70;36.80;;;;;;5041687;28;20422;-61
2022/03/19 12:33:38;;;;;;;1.70;1.27;;;18.70;36.70;;;;;;5042406;28;20413;-61
2022/03/19 12:36:17;;;;;;;2.57;1.47;;;18.70;36.70;;;;;;5043008;28;20433;-63
2022/03/19 12:38:45;;;;;;;3.07;1.30;;;18.70;36.70;;;;;;5045090;28;20445;-61
2022/03/19 12:41:24;;;;;;;4.67;1.30;;;18.70;36.70;;;;;;5040255;28;20506;-63
2022/03/19 12:43:51;;;;;;;5.30;1.40;;;18.80;36.60;;;;;;5046363;28;20477;-62
2022/03/19 12:46:30;;;;;;;1.30;1.10;;;18.80;36.50;;;;;;5044253;28;20434;-66
2022/03/19 12:49:15;;;;;;;1.40;1.30;;;18.80;36.40;;;;;;5040103;28;20451;-62
2022/03/19 12:51:47;;;;;;;1.80;1.30;;;18.90;36.40;;;;;;5047212;28;20513;-63
2022/03/19 12:54:25;;;;;;;1.50;1.40;;;18.90;36.20;;;;;;5045090;28;20418;-62
2022/03/19 12:56:53;;;;;;;1.60;1.20;;;19.00;36.20;;;;;;5041809;28;20509;-61
2022/03/19 12:59:21;;;;;;;1.27;1.17;;;19.00;36.00;;;;;;5045461;28;20414;-63
2022/03/19 13:01:48;;;;;;;2.30;1.23;;;19.00;35.90;;;;;;5039788;28;20962;-64
2022/03/19 13:04:27;;;;;;;2.20;1.20;;;19.00;35.90;;;;;;5040139;28;20908;-62
2022/03/19 13:06:54;;;;;;;1.57;1.23;;;19.10;35.60;;;;;;5040204;28;21026;-61